sensor_id;sensor_type;location;lat;lon;timestamp;temperature;humidity
31695;DHT22;18289;51.330;4.946;2023-03-04T00:01:17;6.30;99.90
31695;DHT22;18289;51.330;4.946;2023-03-04T00:03:43;6.40;99.90
31695;DHT22;18289;51.330;4.946;2023-03-04T00:06:09;6.40;99.90
31695;DHT22;18289;51.330;4.946;2023-03-04T00:08:34;6.30;99.90
31695;DHT22;18289;51.330;4.946;2023-03-04T00:11:00;6.40;99.90
31695;DHT22;18289;51.330;4.946;2023-03-04T00:13:26;6.30;99.90
31695;DHT22;18289;51.330;4.946;2023-03-04T00:15:52;6.30;99.90
31695;DHT22;18289;51.330;4.946;2023-03-04T00:18:18;6.30;99.90
31695;DHT22;18289;51.330;4.946;2023-03-04T00:20:45;6.50;99.90
31695;DHT22;18289;51.330;4.946;2023-03-04T00:23:11;6.40;99.90
31695;DHT22;18289;51.330;4.946;2023-03-04T00:25:37;6.50;99.90
31695;DHT22;18289;51.330;4.946;2023-03-04T00:28:03;6.50;99.90
31695;DHT22;18289;51.330;4.946;2023-03-04T00:30:29;6.40;99.90
31695;DHT22;18289;51.330;4.946;2023-03-04T00:32:54;6.40;99.90
31695;DHT22;18289;51.330;4.946;2023-03-04T00:35:20;6.40;99.90
31695;DHT22;18289;51.330;4.946;2023-03-04T00:37:46;6.30;99.90
31695;DHT22;18289;51.330;4.946;2023-03-04T00:40:13;6.30;99.90
31695;DHT22;18289;51.330;4.946;2023-03-04T00:42:38;6.30;99.90
31695;DHT22;18289;51.330;4.946;2023-03-04T00:45:05;6.30;99.90
31695;DHT22;18289;51.330;4.946;2023-03-04T00:47:31;6.30;99.90
31695;DHT22;18289;51.330;4.946;2023-03-04T00:49:56;6.30;99.90
31695;DHT22;18289;51.330;4.946;2023-03-04T00:52:22;6.40;99.90
31695;DHT22;18289;51.330;4.946;2023-03-04T00:54:48;6.30;99.90
31695;DHT22;18289;51.330;4.946;2023-03-04T00:57:13;6.40;99.90
31695;DHT22;18289;51.330;4.946;2023-03-04T00:59:39;6.50;99.90
31695;DHT22;18289;51.330;4.946;2023-03-04T01:02:05;6.40;99.90
31695;DHT22;18289;51.330;4.946;2023-03-04T01:04:31;6.50;99.90
31695;DHT22;18289;51.330;4.946;2023-03-04T01:06:57;6.40;99.90
31695;DHT22;18289;51.330;4.946;2023-03-04T01:09:22;6.40;99.90
31695;DHT22;18289;51.330;4.946;2023-03-04T01:11:48;6.40;99.90
31695;DHT22;18289;51.330;4.946;2023-03-04T01:14:14;6.40;99.90
31695;DHT22;18289;51.330;4.946;2023-03-04T01:16:39;6.40;99.90
31695;DHT22;18289;51.330;4.946;2023-03-04T01:19:05;6.40;99.90
31695;DHT22;18289;51.330;4.946;2023-03-04T01:21:31;6.40;99.90
31695;DHT22;18289;51.330;4.946;2023-03-04T01:23:56;6.40;99.90
31695;DHT22;18289;51.330;4.946;2023-03-04T01:26:22;6.30;99.90
31695;DHT22;18289;51.330;4.946;2023-03-04T01:28:48;6.30;99.90
31695;DHT22;18289;51.330;4.946;2023-03-04T01:31:14;6.30;99.90
31695;DHT22;18289;51.330;4.946;2023-03-04T01:33:39;6.30;99.90
31695;DHT22;18289;51.330;4.946;2023-03-04T01:36:05;6.40;99.90
31695;DHT22;18289;51.330;4.946;2023-03-04T01:38:31;6.40;99.90
31695;DHT22;18289;51.330;4.946;2023-03-04T01:40:56;6.30;99.90
31695;DHT22;18289;51.330;4.946;2023-03-04T01:43:28;6.30;99.90
31695;DHT22;18289;51.330;4.946;2023-03-04T01:45:56;6.40;99.90
31695;DHT22;18289;51.330;4.946;2023-03-04T01:48:30;6.30;99.90
31695;DHT22;18289;51.330;4.946;2023-03-04T01:50:58;6.40;99.90
31695;DHT22;18289;51.330;4.946;2023-03-04T01:53:28;6.40;99.90
31695;DHT22;18289;51.330;4.946;2023-03-04T01:56:01;6.30;99.90
31695;DHT22;18289;51.330;4.946;2023-03-04T01:58:30;6.40;99.90
31695;DHT22;18289;51.330;4.946;2023-03-04T02:00:57;6.40;99.90
31695;DHT22;18289;51.330;4.946;2023-03-04T02:03:23;6.40;99.90
31695;DHT22;18289;51.330;4.946;2023-03-04T02:05:51;6.50;99.90
31695;DHT22;18289;51.330;4.946;2023-03-04T02:08:19;6.40;99.90
31695;DHT22;18289;51.330;4.946;2023-03-04T02:10:46;6.40;99.90
31695;DHT22;18289;51.330;4.946;2023-03-04T02:13:13;6.30;99.90
31695;DHT22;18289;51.330;4.946;2023-03-04T02:15:38;6.30;99.90
31695;DHT22;18289;51.330;4.946;2023-03-04T02:18:22;6.30;99.90
31695;DHT22;18289;51.330;4.946;2023-03-04T02:20:55;6.20;99.90
31695;DHT22;18289;51.330;4.946;2023-03-04T02:23:37;6.40;99.90
31695;DHT22;18289;51.330;4.946;2023-03-04T02:26:24;6.40;99.90
31695;DHT22;18289;51.330;4.946;2023-03-04T02:28:52;6.40;99.90
31695;DHT22;18289;51.330;4.946;2023-03-04T02:31:29;6.40;99.90
31695;DHT22;18289;51.330;4.946;2023-03-04T02:33:58;6.40;99.90
31695;DHT22;18289;51.330;4.946;2023-03-04T02:36:24;6.40;99.90
31695;DHT22;18289;51.330;4.946;2023-03-04T02:38:51;6.40;99.90
31695;DHT22;18289;51.330;4.946;2023-03-04T02:41:23;6.40;99.90
31695;DHT22;18289;51.330;4.946;2023-03-04T02:43:52;6.30;99.90
31695;DHT22;18289;51.330;4.946;2023-03-04T02:46:18;6.50;99.90
31695;DHT22;18289;51.330;4.946;2023-03-04T02:48:44;6.40;99.90
31695;DHT22;18289;51.330;4.946;2023-03-04T02:51:10;6.40;99.90
31695;DHT22;18289;51.330;4.946;2023-03-04T02:53:36;6.30;99.90
31695;DHT22;18289;51.330;4.946;2023-03-04T02:56:02;6.30;99.90
31695;DHT22;18289;51.330;4.946;2023-03-04T02:58:28;6.20;99.90
31695;DHT22;18289;51.330;4.946;2023-03-04T03:00:54;6.30;99.90
31695;DHT22;18289;51.330;4.946;2023-03-04T03:03:19;6.30;99.90
31695;DHT22;18289;51.330;4.946;2023-03-04T03:05:45;6.30;99.90
31695;DHT22;18289;51.330;4.946;2023-03-04T03:08:10;6.50;99.90
31695;DHT22;18289;51.330;4.946;2023-03-04T03:10:36;6.50;99.90
31695;DHT22;18289;51.330;4.946;2023-03-04T03:13:02;6.40;99.90
31695;DHT22;18289;51.330;4.946;2023-03-04T03:15:28;6.30;99.90
31695;DHT22;18289;51.330;4.946;2023-03-04T03:17:53;6.20;99.90
31695;DHT22;18289;51.330;4.946;2023-03-04T03:20:19;6.30;99.90
31695;DHT22;18289;51.330;4.946;2023-03-04T03:22:45;6.40;99.90
31695;DHT22;18289;51.330;4.946;2023-03-04T03:25:12;6.30;99.90
31695;DHT22;18289;51.330;4.946;2023-03-04T03:27:38;6.30;99.90
31695;DHT22;18289;51.330;4.946;2023-03-04T03:30:05;6.30;99.90
31695;DHT22;18289;51.330;4.946;2023-03-04T03:32:32;6.30;99.90
31695;DHT22;18289;51.330;4.946;2023-03-04T03:34:57;6.30;99.90
31695;DHT22;18289;51.330;4.946;2023-03-04T03:37:23;6.20;99.90
31695;DHT22;18289;51.330;4.946;2023-03-04T03:39:49;6.30;99.90
31695;DHT22;18289;51.330;4.946;2023-03-04T03:42:14;6.20;99.90
31695;DHT22;18289;51.330;4.946;2023-03-04T03:44:40;6.20;99.90
31695;DHT22;18289;51.330;4.946;2023-03-04T03:47:06;6.20;99.90
31695;DHT22;18289;51.330;4.946;2023-03-04T03:49:31;6.20;99.90
31695;DHT22;18289;51.330;4.946;2023-03-04T03:51:57;6.20;99.90
31695;DHT22;18289;51.330;4.946;2023-03-04T03:54:23;6.10;99.90
31695;DHT22;18289;51.330;4.946;2023-03-04T03:56:48;6.20;99.90
31695;DHT22;18289;51.330;4.946;2023-03-04T03:59:14;6.20;99.90
31695;DHT22;18289;51.330;4.946;2023-03-04T04:01:40;6.30;99.90
31695;DHT22;18289;51.330;4.946;2023-03-04T04:04:06;6.30;99.90
31695;DHT22;18289;51.330;4.946;2023-03-04T04:06:31;6.30;99.90
31695;DHT22;18289;51.330;4.946;2023-03-04T04:08:57;6.30;99.90
31695;DHT22;18289;51.330;4.946;2023-03-04T04:11:23;6.30;99.90
31695;DHT22;18289;51.330;4.946;2023-03-04T04:13:48;6.30;99.90
31695;DHT22;18289;51.330;4.946;2023-03-04T04:16:14;6.30;99.90
31695;DHT22;18289;51.330;4.946;2023-03-04T04:18:40;6.30;99.90
31695;DHT22;18289;51.330;4.946;2023-03-04T04:21:06;6.30;99.90
31695;DHT22;18289;51.330;4.946;2023-03-04T04:23:32;6.30;99.90
31695;DHT22;18289;51.330;4.946;2023-03-04T04:25:58;6.30;99.90
31695;DHT22;18289;51.330;4.946;2023-03-04T04:28:24;6.40;99.90
31695;DHT22;18289;51.330;4.946;2023-03-04T04:30:50;6.30;99.90
31695;DHT22;18289;51.330;4.946;2023-03-04T04:33:16;6.20;99.90
31695;DHT22;18289;51.330;4.946;2023-03-04T04:35:41;6.30;99.90
31695;DHT22;18289;51.330;4.946;2023-03-04T04:38:08;6.20;99.90
31695;DHT22;18289;51.330;4.946;2023-03-04T04:40:34;6.20;99.90
31695;DHT22;18289;51.330;4.946;2023-03-04T04:43:01;6.20;99.90
31695;DHT22;18289;51.330;4.946;2023-03-04T04:45:26;6.30;99.90
31695;DHT22;18289;51.330;4.946;2023-03-04T04:47:53;6.30;99.90
31695;DHT22;18289;51.330;4.946;2023-03-04T04:50:20;6.30;99.90
31695;DHT22;18289;51.330;4.946;2023-03-04T04:52:45;6.30;99.90
31695;DHT22;18289;51.330;4.946;2023-03-04T04:55:14;6.30;99.90
31695;DHT22;18289;51.330;4.946;2023-03-04T04:57:40;6.20;99.90
31695;DHT22;18289;51.330;4.946;2023-03-04T05:00:07;6.20;99.90
31695;DHT22;18289;51.330;4.946;2023-03-04T05:02:35;6.40;99.90
31695;DHT22;18289;51.330;4.946;2023-03-04T05:05:05;6.20;99.90
31695;DHT22;18289;51.330;4.946;2023-03-04T05:07:32;6.20;99.90
31695;DHT22;18289;51.330;4.946;2023-03-04T05:09:57;6.30;99.90
31695;DHT22;18289;51.330;4.946;2023-03-04T05:12:23;6.30;99.90
31695;DHT22;18289;51.330;4.946;2023-03-04T05:14:49;6.30;99.90
31695;DHT22;18289;51.330;4.946;2023-03-04T05:17:15;6.20;99.90
31695;DHT22;18289;51.330;4.946;2023-03-04T05:19:41;6.20;99.90
31695;DHT22;18289;51.330;4.946;2023-03-04T05:22:06;6.30;99.90
31695;DHT22;18289;51.330;4.946;2023-03-04T05:24:32;6.20;99.90
31695;DHT22;18289;51.330;4.946;2023-03-04T05:26:59;6.20;99.90
31695;DHT22;18289;51.330;4.946;2023-03-04T05:29:25;6.10;99.90
31695;DHT22;18289;51.330;4.946;2023-03-04T05:31:51;6.10;99.90
31695;DHT22;18289;51.330;4.946;2023-03-04T05:34:17;6.10;99.90
31695;DHT22;18289;51.330;4.946;2023-03-04T05:36:43;6.10;99.90
31695;DHT22;18289;51.330;4.946;2023-03-04T05:39:08;6.10;99.90
31695;DHT22;18289;51.330;4.946;2023-03-04T05:41:34;6.20;99.90
31695;DHT22;18289;51.330;4.946;2023-03-04T05:44:00;6.20;99.90
31695;DHT22;18289;51.330;4.946;2023-03-04T05:46:25;6.20;99.90
31695;DHT22;18289;51.330;4.946;2023-03-04T05:48:52;6.30;99.90
31695;DHT22;18289;51.330;4.946;2023-03-04T05:51:18;6.20;99.90
31695;DHT22;18289;51.330;4.946;2023-03-04T05:53:44;6.20;99.90
31695;DHT22;18289;51.330;4.946;2023-03-04T05:56:12;6.30;99.90
31695;DHT22;18289;51.330;4.946;2023-03-04T05:58:38;6.30;99.90
31695;DHT22;18289;51.330;4.946;2023-03-04T06:01:05;6.20;99.90
31695;DHT22;18289;51.330;4.946;2023-03-04T06:03:31;6.10;99.90
31695;DHT22;18289;51.330;4.946;2023-03-04T06:05:57;6.20;99.90
31695;DHT22;18289;51.330;4.946;2023-03-04T06:08:23;6.30;99.90
31695;DHT22;18289;51.330;4.946;2023-03-04T06:10:52;6.20;99.90
31695;DHT22;18289;51.330;4.946;2023-03-04T06:13:18;6.20;99.90
31695;DHT22;18289;51.330;4.946;2023-03-04T06:15:44;6.30;99.90
31695;DHT22;18289;51.330;4.946;2023-03-04T06:18:09;6.20;99.90
31695;DHT22;18289;51.330;4.946;2023-03-04T06:20:36;6.20;99.90
31695;DHT22;18289;51.330;4.946;2023-03-04T06:23:03;6.20;99.90
31695;DHT22;18289;51.330;4.946;2023-03-04T06:25:28;6.30;99.90
31695;DHT22;18289;51.330;4.946;2023-03-04T06:27:54;6.20;99.90
31695;DHT22;18289;51.330;4.946;2023-03-04T06:30:20;6.20;99.90
31695;DHT22;18289;51.330;4.946;2023-03-04T06:32:46;6.30;99.90
31695;DHT22;18289;51.330;4.946;2023-03-04T06:35:14;6.30;99.90
31695;DHT22;18289;51.330;4.946;2023-03-04T06:37:41;6.20;99.90
31695;DHT22;18289;51.330;4.946;2023-03-04T06:40:08;6.20;99.90
31695;DHT22;18289;51.330;4.946;2023-03-04T06:42:35;6.10;99.90
31695;DHT22;18289;51.330;4.946;2023-03-04T06:45:02;6.20;99.90
31695;DHT22;18289;51.330;4.946;2023-03-04T06:47:28;6.20;99.90
31695;DHT22;18289;51.330;4.946;2023-03-04T06:49:53;6.20;99.90
31695;DHT22;18289;51.330;4.946;2023-03-04T06:52:19;6.30;99.90
31695;DHT22;18289;51.330;4.946;2023-03-04T06:54:45;6.20;99.90
31695;DHT22;18289;51.330;4.946;2023-03-04T06:57:11;6.30;99.90
31695;DHT22;18289;51.330;4.946;2023-03-04T06:59:38;6.30;99.90
31695;DHT22;18289;51.330;4.946;2023-03-04T07:02:04;6.30;99.90
31695;DHT22;18289;51.330;4.946;2023-03-04T07:04:30;6.30;99.90
31695;DHT22;18289;51.330;4.946;2023-03-04T07:06:55;6.30;99.90
31695;DHT22;18289;51.330;4.946;2023-03-04T07:09:21;6.30;99.90
31695;DHT22;18289;51.330;4.946;2023-03-04T07:11:47;6.30;99.90
31695;DHT22;18289;51.330;4.946;2023-03-04T07:14:12;6.40;99.90
31695;DHT22;18289;51.330;4.946;2023-03-04T07:16:38;6.40;99.90
31695;DHT22;18289;51.330;4.946;2023-03-04T07:19:04;6.30;99.90
31695;DHT22;18289;51.330;4.946;2023-03-04T07:21:30;6.40;99.90
31695;DHT22;18289;51.330;4.946;2023-03-04T07:23:56;6.40;99.90
31695;DHT22;18289;51.330;4.946;2023-03-04T07:26:22;6.40;99.90
31695;DHT22;18289;51.330;4.946;2023-03-04T07:28:47;6.50;99.90
31695;DHT22;18289;51.330;4.946;2023-03-04T07:31:31;6.40;99.90
31695;DHT22;18289;51.330;4.946;2023-03-04T07:34:02;6.60;99.90
31695;DHT22;18289;51.330;4.946;2023-03-04T07:36:30;6.50;99.90
31695;DHT22;18289;51.330;4.946;2023-03-04T07:38:56;6.60;99.90
31695;DHT22;18289;51.330;4.946;2023-03-04T07:41:24;6.60;99.90
31695;DHT22;18289;51.330;4.946;2023-03-04T07:43:50;6.60;99.90
31695;DHT22;18289;51.330;4.946;2023-03-04T07:46:17;6.60;99.90
31695;DHT22;18289;51.330;4.946;2023-03-04T07:48:43;6.60;99.90
31695;DHT22;18289;51.330;4.946;2023-03-04T07:51:20;6.70;99.90
31695;DHT22;18289;51.330;4.946;2023-03-04T07:53:49;6.80;99.90
31695;DHT22;18289;51.330;4.946;2023-03-04T07:56:19;6.70;99.90
31695;DHT22;18289;51.330;4.946;2023-03-04T07:58:45;6.70;99.90
31695;DHT22;18289;51.330;4.946;2023-03-04T08:01:13;6.70;99.90
31695;DHT22;18289;51.330;4.946;2023-03-04T08:03:39;6.70;99.90
31695;DHT22;18289;51.330;4.946;2023-03-04T08:06:06;6.70;99.90
31695;DHT22;18289;51.330;4.946;2023-03-04T08:08:33;6.80;99.90
31695;DHT22;18289;51.330;4.946;2023-03-04T08:10:58;6.90;99.90
31695;DHT22;18289;51.330;4.946;2023-03-04T08:13:24;6.90;99.90
31695;DHT22;18289;51.330;4.946;2023-03-04T08:15:50;6.90;99.90
31695;DHT22;18289;51.330;4.946;2023-03-04T08:18:15;7.00;99.90
31695;DHT22;18289;51.330;4.946;2023-03-04T08:20:42;6.90;99.90
31695;DHT22;18289;51.330;4.946;2023-03-04T08:23:10;7.00;99.90
31695;DHT22;18289;51.330;4.946;2023-03-04T08:25:40;7.00;99.90
31695;DHT22;18289;51.330;4.946;2023-03-04T08:28:06;6.90;99.90
31695;DHT22;18289;51.330;4.946;2023-03-04T08:30:33;7.00;99.90
31695;DHT22;18289;51.330;4.946;2023-03-04T08:33:00;7.00;99.90
31695;DHT22;18289;51.330;4.946;2023-03-04T08:35:26;7.00;99.90
31695;DHT22;18289;51.330;4.946;2023-03-04T08:37:52;7.00;99.90
31695;DHT22;18289;51.330;4.946;2023-03-04T08:40:17;7.10;99.90
31695;DHT22;18289;51.330;4.946;2023-03-04T08:42:43;7.10;99.90
31695;DHT22;18289;51.330;4.946;2023-03-04T08:45:09;7.20;99.90
31695;DHT22;18289;51.330;4.946;2023-03-04T08:47:35;7.50;99.90
31695;DHT22;18289;51.330;4.946;2023-03-04T08:50:02;7.40;99.90
31695;DHT22;18289;51.330;4.946;2023-03-04T08:52:29;7.40;99.90
31695;DHT22;18289;51.330;4.946;2023-03-04T08:54:55;7.50;99.90
31695;DHT22;18289;51.330;4.946;2023-03-04T08:57:21;7.40;99.90
31695;DHT22;18289;51.330;4.946;2023-03-04T08:59:46;7.50;99.90
31695;DHT22;18289;51.330;4.946;2023-03-04T09:02:12;7.50;99.90
31695;DHT22;18289;51.330;4.946;2023-03-04T09:04:38;7.50;99.90
31695;DHT22;18289;51.330;4.946;2023-03-04T09:07:03;7.60;99.90
31695;DHT22;18289;51.330;4.946;2023-03-04T09:09:30;7.70;99.90
31695;DHT22;18289;51.330;4.946;2023-03-04T09:11:56;7.90;99.90
31695;DHT22;18289;51.330;4.946;2023-03-04T09:14:21;8.20;99.90
31695;DHT22;18289;51.330;4.946;2023-03-04T09:16:47;8.30;99.90
31695;DHT22;18289;51.330;4.946;2023-03-04T09:19:13;8.70;99.90
31695;DHT22;18289;51.330;4.946;2023-03-04T09:21:38;8.80;99.90
31695;DHT22;18289;51.330;4.946;2023-03-04T09:24:04;9.00;99.90
31695;DHT22;18289;51.330;4.946;2023-03-04T09:26:30;9.30;99.90
31695;DHT22;18289;51.330;4.946;2023-03-04T09:29:00;9.60;99.90
31695;DHT22;18289;51.330;4.946;2023-03-04T09:31:26;9.70;99.90
31695;DHT22;18289;51.330;4.946;2023-03-04T09:33:53;9.90;99.90
31695;DHT22;18289;51.330;4.946;2023-03-04T09:36:19;9.60;99.90
31695;DHT22;18289;51.330;4.946;2023-03-04T09:38:45;9.60;99.90
31695;DHT22;18289;51.330;4.946;2023-03-04T09:41:17;9.70;99.90
31695;DHT22;18289;51.330;4.946;2023-03-04T09:43:44;9.70;99.90
31695;DHT22;18289;51.330;4.946;2023-03-04T09:46:15;9.40;99.90
31695;DHT22;18289;51.330;4.946;2023-03-04T09:48:46;9.10;99.90
31695;DHT22;18289;51.330;4.946;2023-03-04T09:54:13;9.10;99.90
31695;DHT22;18289;51.330;4.946;2023-03-04T09:56:42;9.20;99.90
31695;DHT22;18289;51.330;4.946;2023-03-04T10:02:19;10.10;99.90
31695;DHT22;18289;51.330;4.946;2023-03-04T10:04:58;10.70;99.90
31695;DHT22;18289;51.330;4.946;2023-03-04T10:07:34;11.00;99.90
31695;DHT22;18289;51.330;4.946;2023-03-04T10:10:16;11.20;99.90
31695;DHT22;18289;51.330;4.946;2023-03-04T10:12:46;11.20;99.90
31695;DHT22;18289;51.330;4.946;2023-03-04T10:15:40;11.40;99.90
31695;DHT22;18289;51.330;4.946;2023-03-04T10:18:29;11.50;99.90
31695;DHT22;18289;51.330;4.946;2023-03-04T10:23:28;12.10;99.90
31695;DHT22;18289;51.330;4.946;2023-03-04T10:25:54;12.30;99.90
31695;DHT22;18289;51.330;4.946;2023-03-04T10:28:24;12.20;99.90
31695;DHT22;18289;51.330;4.946;2023-03-04T10:33:39;11.60;99.90
31695;DHT22;18289;51.330;4.946;2023-03-04T10:38:57;11.10;99.90
31695;DHT22;18289;51.330;4.946;2023-03-04T10:41:25;10.80;99.90
31695;DHT22;18289;51.330;4.946;2023-03-04T10:44:16;10.20;99.90
31695;DHT22;18289;51.330;4.946;2023-03-04T10:46:44;9.90;99.90
31695;DHT22;18289;51.330;4.946;2023-03-04T10:49:12;9.90;99.90
31695;DHT22;18289;51.330;4.946;2023-03-04T10:51:47;10.20;99.90
31695;DHT22;18289;51.330;4.946;2023-03-04T11:07:23;9.90;99.90
31695;DHT22;18289;51.330;4.946;2023-03-04T11:09:49;10.00;99.90
31695;DHT22;18289;51.330;4.946;2023-03-04T11:12:16;10.30;99.90
31695;DHT22;18289;51.330;4.946;2023-03-04T11:14:46;10.70;99.90
31695;DHT22;18289;51.330;4.946;2023-03-04T11:17:25;10.40;99.90
31695;DHT22;18289;51.330;4.946;2023-03-04T11:20:08;10.30;99.90
31695;DHT22;18289;51.330;4.946;2023-03-04T11:22:36;10.40;99.90
31695;DHT22;18289;51.330;4.946;2023-03-04T11:25:07;10.40;99.90
31695;DHT22;18289;51.330;4.946;2023-03-04T11:27:41;10.40;99.90
31695;DHT22;18289;51.330;4.946;2023-03-04T11:30:43;10.50;99.90
31695;DHT22;18289;51.330;4.946;2023-03-04T11:33:46;10.70;99.90
31695;DHT22;18289;51.330;4.946;2023-03-04T11:36:50;10.60;99.90
31695;DHT22;18289;51.330;4.946;2023-03-04T11:44:43;11.20;99.90
31695;DHT22;18289;51.330;4.946;2023-03-04T11:50:21;11.80;99.90
31695;DHT22;18289;51.330;4.946;2023-03-04T11:53:25;11.60;99.90
31695;DHT22;18289;51.330;4.946;2023-03-04T11:56:15;11.20;99.90
31695;DHT22;18289;51.330;4.946;2023-03-04T12:15:27;10.60;99.90
31695;DHT22;18289;51.330;4.946;2023-03-04T12:26:47;10.80;99.90
31695;DHT22;18289;51.330;4.946;2023-03-04T12:29:40;11.00;99.90
31695;DHT22;18289;51.330;4.946;2023-03-04T12:32:20;10.90;99.90
31695;DHT22;18289;51.330;4.946;2023-03-04T12:48:41;11.00;99.90
31695;DHT22;18289;51.330;4.946;2023-03-04T12:51:35;10.90;99.90
31695;DHT22;18289;51.330;4.946;2023-03-04T12:54:14;10.90;99.90
31695;DHT22;18289;51.330;4.946;2023-03-04T12:56:52;11.00;99.90
31695;DHT22;18289;51.330;4.946;2023-03-04T12:59:21;11.00;99.90
31695;DHT22;18289;51.330;4.946;2023-03-04T13:01:52;10.80;99.90
31695;DHT22;18289;51.330;4.946;2023-03-04T13:04:40;11.10;99.90
31695;DHT22;18289;51.330;4.946;2023-03-04T13:07:16;11.30;99.90
31695;DHT22;18289;51.330;4.946;2023-03-04T13:17:48;12.00;99.90
31695;DHT22;18289;51.330;4.946;2023-03-04T13:25:42;11.20;99.90
31695;DHT22;18289;51.330;4.946;2023-03-04T13:43:45;10.10;99.90
31695;DHT22;18289;51.330;4.946;2023-03-04T13:46:40;10.10;99.90
31695;DHT22;18289;51.330;4.946;2023-03-04T13:49:20;10.10;99.90
31695;DHT22;18289;51.330;4.946;2023-03-04T13:51:48;10.00;99.90
31695;DHT22;18289;51.330;4.946;2023-03-04T13:54:26;9.90;99.90
31695;DHT22;18289;51.330;4.946;2023-03-04T13:59:53;9.70;99.90
31695;DHT22;18289;51.330;4.946;2023-03-04T14:02:22;9.60;99.90
31695;DHT22;18289;51.330;4.946;2023-03-04T14:07:19;9.50;99.90
31695;DHT22;18289;51.330;4.946;2023-03-04T14:12:32;9.60;99.90
31695;DHT22;18289;51.330;4.946;2023-03-04T14:15:15;9.50;99.90
31695;DHT22;18289;51.330;4.946;2023-03-04T14:17:46;9.40;99.90
31695;DHT22;18289;51.330;4.946;2023-03-04T14:20:32;9.40;99.90
31695;DHT22;18289;51.330;4.946;2023-03-04T14:23:00;9.60;99.90
31695;DHT22;18289;51.330;4.946;2023-03-04T14:25:32;9.70;99.90
31695;DHT22;18289;51.330;4.946;2023-03-04T14:28:19;10.00;99.90
31695;DHT22;18289;51.330;4.946;2023-03-04T14:30:52;10.10;99.90
31695;DHT22;18289;51.330;4.946;2023-03-04T14:33:21;10.10;99.90
31695;DHT22;18289;51.330;4.946;2023-03-04T14:35:50;10.50;99.90
31695;DHT22;18289;51.330;4.946;2023-03-04T14:38:48;10.60;99.90
31695;DHT22;18289;51.330;4.946;2023-03-04T14:41:20;10.60;99.90
31695;DHT22;18289;51.330;4.946;2023-03-04T14:43:54;10.60;99.90
31695;DHT22;18289;51.330;4.946;2023-03-04T14:46:22;10.70;99.90
31695;DHT22;18289;51.330;4.946;2023-03-04T14:48:51;10.90;99.90
31695;DHT22;18289;51.330;4.946;2023-03-04T14:51:36;10.80;99.90
31695;DHT22;18289;51.330;4.946;2023-03-04T14:54:04;10.80;99.90
31695;DHT22;18289;51.330;4.946;2023-03-04T14:56:33;10.70;99.90
31695;DHT22;18289;51.330;4.946;2023-03-04T14:58:59;10.70;99.90
31695;DHT22;18289;51.330;4.946;2023-03-04T15:01:33;10.30;99.90
31695;DHT22;18289;51.330;4.946;2023-03-04T15:04:10;10.10;99.90
31695;DHT22;18289;51.330;4.946;2023-03-04T15:06:46;10.00;99.90
31695;DHT22;18289;51.330;4.946;2023-03-04T15:09:24;10.10;99.90
31695;DHT22;18289;51.330;4.946;2023-03-04T15:14:42;9.80;99.90
31695;DHT22;18289;51.330;4.946;2023-03-04T15:17:35;9.80;99.90
31695;DHT22;18289;51.330;4.946;2023-03-04T15:22:34;9.80;99.90
31695;DHT22;18289;51.330;4.946;2023-03-04T15:25:00;9.90;99.90
31695;DHT22;18289;51.330;4.946;2023-03-04T15:27:27;9.80;99.90
31695;DHT22;18289;51.330;4.946;2023-03-04T15:29:54;9.60;99.90
31695;DHT22;18289;51.330;4.946;2023-03-04T15:32:24;9.60;99.90
31695;DHT22;18289;51.330;4.946;2023-03-04T15:34:49;9.50;99.90
31695;DHT22;18289;51.330;4.946;2023-03-04T15:37:22;9.40;99.90
31695;DHT22;18289;51.330;4.946;2023-03-04T15:39:49;9.30;99.90
31695;DHT22;18289;51.330;4.946;2023-03-04T15:42:15;9.30;99.90
31695;DHT22;18289;51.330;4.946;2023-03-04T15:44:41;9.30;99.90
31695;DHT22;18289;51.330;4.946;2023-03-04T15:47:09;9.10;99.90
31695;DHT22;18289;51.330;4.946;2023-03-04T15:49:38;9.00;99.90
31695;DHT22;18289;51.330;4.946;2023-03-04T15:52:05;8.90;99.90
31695;DHT22;18289;51.330;4.946;2023-03-04T15:54:32;8.90;99.90
31695;DHT22;18289;51.330;4.946;2023-03-04T15:56:58;8.90;99.90
31695;DHT22;18289;51.330;4.946;2023-03-04T15:59:25;8.90;99.90
31695;DHT22;18289;51.330;4.946;2023-03-04T16:01:50;8.90;99.90
31695;DHT22;18289;51.330;4.946;2023-03-04T16:04:17;8.90;99.90
31695;DHT22;18289;51.330;4.946;2023-03-04T16:06:44;8.80;99.90
31695;DHT22;18289;51.330;4.946;2023-03-04T16:09:12;8.80;99.90
31695;DHT22;18289;51.330;4.946;2023-03-04T16:11:42;8.80;99.90
31695;DHT22;18289;51.330;4.946;2023-03-04T16:14:10;8.90;99.90
31695;DHT22;18289;51.330;4.946;2023-03-04T16:16:36;9.00;99.90
31695;DHT22;18289;51.330;4.946;2023-03-04T16:19:02;9.10;99.90
31695;DHT22;18289;51.330;4.946;2023-03-04T16:21:27;9.10;99.90
31695;DHT22;18289;51.330;4.946;2023-03-04T16:23:53;9.10;99.90
31695;DHT22;18289;51.330;4.946;2023-03-04T16:26:21;9.10;99.90
31695;DHT22;18289;51.330;4.946;2023-03-04T16:28:48;9.00;99.90
31695;DHT22;18289;51.330;4.946;2023-03-04T16:31:14;9.10;99.90
31695;DHT22;18289;51.330;4.946;2023-03-04T16:33:40;9.00;99.90
31695;DHT22;18289;51.330;4.946;2023-03-04T16:38:40;9.20;99.90
31695;DHT22;18289;51.330;4.946;2023-03-04T16:41:11;9.10;99.90
31695;DHT22;18289;51.330;4.946;2023-03-04T16:43:38;9.10;99.90
31695;DHT22;18289;51.330;4.946;2023-03-04T16:46:04;9.10;99.90
31695;DHT22;18289;51.330;4.946;2023-03-04T16:48:30;9.20;99.90
31695;DHT22;18289;51.330;4.946;2023-03-04T16:50:56;9.20;99.90
31695;DHT22;18289;51.330;4.946;2023-03-04T16:53:25;9.20;99.90
31695;DHT22;18289;51.330;4.946;2023-03-04T16:55:51;9.10;99.90
31695;DHT22;18289;51.330;4.946;2023-03-04T16:58:17;9.00;99.90
31695;DHT22;18289;51.330;4.946;2023-03-04T17:00:43;9.00;99.90
31695;DHT22;18289;51.330;4.946;2023-03-04T17:03:09;9.00;99.90
31695;DHT22;18289;51.330;4.946;2023-03-04T17:05:35;8.90;99.90
31695;DHT22;18289;51.330;4.946;2023-03-04T17:08:02;8.80;99.90
31695;DHT22;18289;51.330;4.946;2023-03-04T17:10:27;8.70;99.90
31695;DHT22;18289;51.330;4.946;2023-03-04T17:12:53;8.80;99.90
31695;DHT22;18289;51.330;4.946;2023-03-04T17:15:19;8.70;99.90
31695;DHT22;18289;51.330;4.946;2023-03-04T17:17:45;8.60;99.90
31695;DHT22;18289;51.330;4.946;2023-03-04T17:20:14;8.60;99.90
31695;DHT22;18289;51.330;4.946;2023-03-04T17:22:41;8.70;99.90
31695;DHT22;18289;51.330;4.946;2023-03-04T17:25:07;8.60;99.90
31695;DHT22;18289;51.330;4.946;2023-03-04T17:27:33;8.70;99.90
31695;DHT22;18289;51.330;4.946;2023-03-04T17:29:59;8.50;99.90
31695;DHT22;18289;51.330;4.946;2023-03-04T17:32:24;8.40;99.90
31695;DHT22;18289;51.330;4.946;2023-03-04T17:34:53;8.30;99.90
31695;DHT22;18289;51.330;4.946;2023-03-04T17:37:20;8.20;99.90
31695;DHT22;18289;51.330;4.946;2023-03-04T17:39:46;8.10;99.90
31695;DHT22;18289;51.330;4.946;2023-03-04T17:42:12;8.10;99.90
31695;DHT22;18289;51.330;4.946;2023-03-04T17:44:38;8.10;99.90
31695;DHT22;18289;51.330;4.946;2023-03-04T17:47:04;8.20;99.90
31695;DHT22;18289;51.330;4.946;2023-03-04T17:49:30;8.20;99.90
31695;DHT22;18289;51.330;4.946;2023-03-04T17:51:56;8.10;99.90